sensor_id;sensor_type;location;lat;lon;timestamp;P1;durP1;ratioP1;P2;durP2;ratioP2
5754;SDS011;2902;42.130;24.732;2023-12-20T00:01:40;73.67;;;37.10;;
5754;SDS011;2902;42.130;24.732;2023-12-20T00:04:06;79.17;;;37.87;;
5754;SDS011;2902;42.130;24.732;2023-12-20T00:06:33;63.70;;;32.43;;
5754;SDS011;2902;42.130;24.732;2023-12-20T00:09:00;55.60;;;29.37;;
5754;SDS011;2902;42.130;24.732;2023-12-20T00:11:27;52.60;;;26.60;;
5754;SDS011;2902;42.130;24.732;2023-12-20T00:13:53;43.80;;;24.47;;
5754;SDS011;2902;42.130;24.732;2023-12-20T00:16:20;38.30;;;21.77;;
5754;SDS011;2902;42.130;24.732;2023-12-20T00:18:48;29.67;;;19.07;;
5754;SDS011;2902;42.130;24.732;2023-12-20T00:21:15;32.07;;;19.73;;
5754;SDS011;2902;42.130;24.732;2023-12-20T00:23:41;32.70;;;20.87;;
5754;SDS011;2902;42.130;24.732;2023-12-20T00:26:08;31.13;;;20.60;;
5754;SDS011;2902;42.130;24.732;2023-12-20T00:28:35;31.63;;;19.43;;
5754;SDS011;2902;42.130;24.732;2023-12-20T00:31:01;34.03;;;22.67;;
5754;SDS011;2902;42.130;24.732;2023-12-20T00:33:29;33.93;;;22.40;;
5754;SDS011;2902;42.130;24.732;2023-12-20T00:35:57;30.93;;;19.67;;
5754;SDS011;2902;42.130;24.732;2023-12-20T00:38:24;33.07;;;20.20;;
5754;SDS011;2902;42.130;24.732;2023-12-20T00:40:51;36.20;;;22.03;;
5754;SDS011;2902;42.130;24.732;2023-12-20T00:43:17;36.63;;;21.37;;
5754;SDS011;2902;42.130;24.732;2023-12-20T00:45:44;31.83;;;19.67;;
5754;SDS011;2902;42.130;24.732;2023-12-20T00:48:11;49.63;;;27.70;;
5754;SDS011;2902;42.130;24.732;2023-12-20T00:50:38;89.80;;;49.63;;
5754;SDS011;2902;42.130;24.732;2023-12-20T00:53:06;67.60;;;39.43;;
5754;SDS011;2902;42.130;24.732;2023-12-20T00:55:32;33.93;;;23.03;;
5754;SDS011;2902;42.130;24.732;2023-12-20T00:57:59;32.67;;;19.13;;
5754;SDS011;2902;42.130;24.732;2023-12-20T01:00:26;23.53;;;17.17;;
5754;SDS011;2902;42.130;24.732;2023-12-20T01:02:52;34.77;;;18.90;;
5754;SDS011;2902;42.130;24.732;2023-12-20T01:05:19;29.97;;;18.00;;
5754;SDS011;2902;42.130;24.732;2023-12-20T01:07:48;34.80;;;18.53;;
5754;SDS011;2902;42.130;24.732;2023-12-20T01:10:16;37.77;;;21.37;;
5754;SDS011;2902;42.130;24.732;2023-12-20T01:12:43;46.67;;;28.47;;
5754;SDS011;2902;42.130;24.732;2023-12-20T01:15:09;44.23;;;26.30;;
5754;SDS011;2902;42.130;24.732;2023-12-20T01:17:36;47.03;;;29.30;;
5754;SDS011;2902;42.130;24.732;2023-12-20T01:20:03;42.13;;;24.87;;
5754;SDS011;2902;42.130;24.732;2023-12-20T01:22:31;41.33;;;25.67;;
5754;SDS011;2902;42.130;24.732;2023-12-20T01:24:57;42.87;;;25.50;;
5754;SDS011;2902;42.130;24.732;2023-12-20T01:27:25;40.13;;;25.20;;
5754;SDS011;2902;42.130;24.732;2023-12-20T01:29:52;50.53;;;29.40;;
5754;SDS011;2902;42.130;24.732;2023-12-20T01:32:19;40.07;;;25.97;;
5754;SDS011;2902;42.130;24.732;2023-12-20T01:34:46;45.13;;;26.93;;
5754;SDS011;2902;42.130;24.732;2023-12-20T01:37:13;49.67;;;27.97;;
5754;SDS011;2902;42.130;24.732;2023-12-20T01:39:40;58.37;;;33.10;;
5754;SDS011;2902;42.130;24.732;2023-12-20T01:42:07;40.57;;;26.37;;
5754;SDS011;2902;42.130;24.732;2023-12-20T01:44:35;39.07;;;24.40;;
5754;SDS011;2902;42.130;24.732;2023-12-20T01:47:01;42.37;;;25.57;;
5754;SDS011;2902;42.130;24.732;2023-12-20T01:49:28;42.10;;;24.83;;
5754;SDS011;2902;42.130;24.732;2023-12-20T01:51:55;40.27;;;23.13;;
5754;SDS011;2902;42.130;24.732;2023-12-20T01:54:22;33.00;;;22.27;;
5754;SDS011;2902;42.130;24.732;2023-12-20T01:56:49;44.33;;;21.63;;
5754;SDS011;2902;42.130;24.732;2023-12-20T01:59:17;36.17;;;20.97;;
5754;SDS011;2902;42.130;24.732;2023-12-20T02:01:47;29.40;;;19.43;;
5754;SDS011;2902;42.130;24.732;2023-12-20T02:04:15;28.97;;;18.23;;
5754;SDS011;2902;42.130;24.732;2023-12-20T02:06:42;26.10;;;18.37;;
5754;SDS011;2902;42.130;24.732;2023-12-20T02:09:12;23.87;;;16.37;;
5754;SDS011;2902;42.130;24.732;2023-12-20T02:11:39;23.73;;;16.00;;
5754;SDS011;2902;42.130;24.732;2023-12-20T02:14:06;22.13;;;16.43;;
5754;SDS011;2902;42.130;24.732;2023-12-20T02:16:33;22.40;;;16.07;;
5754;SDS011;2902;42.130;24.732;2023-12-20T02:19:01;22.97;;;15.67;;
5754;SDS011;2902;42.130;24.732;2023-12-20T02:21:33;23.20;;;15.60;;
5754;SDS011;2902;42.130;24.732;2023-12-20T02:24:00;18.03;;;15.00;;
5754;SDS011;2902;42.130;24.732;2023-12-20T02:26:27;19.93;;;16.27;;
5754;SDS011;2902;42.130;24.732;2023-12-20T02:28:54;22.57;;;15.67;;
5754;SDS011;2902;42.130;24.732;2023-12-20T02:31:21;26.97;;;16.77;;
5754;SDS011;2902;42.130;24.732;2023-12-20T02:33:48;26.10;;;18.10;;
5754;SDS011;2902;42.130;24.732;2023-12-20T02:36:14;23.50;;;16.10;;
5754;SDS011;2902;42.130;24.732;2023-12-20T02:38:42;20.97;;;14.90;;
5754;SDS011;2902;42.130;24.732;2023-12-20T02:41:09;21.47;;;15.43;;
5754;SDS011;2902;42.130;24.732;2023-12-20T02:43:35;23.53;;;14.67;;
5754;SDS011;2902;42.130;24.732;2023-12-20T02:46:02;21.43;;;15.23;;
5754;SDS011;2902;42.130;24.732;2023-12-20T02:48:29;22.97;;;15.37;;
5754;SDS011;2902;42.130;24.732;2023-12-20T02:50:56;19.40;;;14.00;;
5754;SDS011;2902;42.130;24.732;2023-12-20T02:53:22;25.73;;;15.23;;
5754;SDS011;2902;42.130;24.732;2023-12-20T02:55:50;22.67;;;16.00;;
5754;SDS011;2902;42.130;24.732;2023-12-20T02:58:17;23.67;;;15.80;;
5754;SDS011;2902;42.130;24.732;2023-12-20T03:00:44;28.27;;;16.73;;
5754;SDS011;2902;42.130;24.732;2023-12-20T03:03:11;20.03;;;15.87;;
5754;SDS011;2902;42.130;24.732;2023-12-20T03:05:37;20.93;;;15.23;;
5754;SDS011;2902;42.130;24.732;2023-12-20T03:08:04;21.10;;;13.97;;
5754;SDS011;2902;42.130;24.732;2023-12-20T03:10:32;18.27;;;13.67;;
5754;SDS011;2902;42.130;24.732;2023-12-20T03:13:00;19.23;;;14.27;;
5754;SDS011;2902;42.130;24.732;2023-12-20T03:15:26;20.53;;;14.03;;
5754;SDS011;2902;42.130;24.732;2023-12-20T03:17:53;15.90;;;12.40;;
5754;SDS011;2902;42.130;24.732;2023-12-20T03:20:20;16.07;;;12.50;;
5754;SDS011;2902;42.130;24.732;2023-12-20T03:22:46;15.93;;;13.03;;
5754;SDS011;2902;42.130;24.732;2023-12-20T03:25:13;17.53;;;13.23;;
5754;SDS011;2902;42.130;24.732;2023-12-20T03:27:40;16.63;;;13.70;;
5754;SDS011;2902;42.130;24.732;2023-12-20T03:30:08;18.60;;;13.37;;
5754;SDS011;2902;42.130;24.732;2023-12-20T03:32:36;17.57;;;13.37;;
5754;SDS011;2902;42.130;24.732;2023-12-20T03:35:04;18.27;;;13.80;;
5754;SDS011;2902;42.130;24.732;2023-12-20T03:37:31;15.50;;;12.47;;
5754;SDS011;2902;42.130;24.732;2023-12-20T03:39:57;15.17;;;12.27;;
5754;SDS011;2902;42.130;24.732;2023-12-20T03:42:24;14.87;;;11.20;;
5754;SDS011;2902;42.130;24.732;2023-12-20T03:44:51;20.60;;;11.53;;
5754;SDS011;2902;42.130;24.732;2023-12-20T03:47:19;15.57;;;12.43;;
5754;SDS011;2902;42.130;24.732;2023-12-20T03:49:46;18.10;;;13.20;;
5754;SDS011;2902;42.130;24.732;2023-12-20T03:52:12;14.60;;;11.97;;
5754;SDS011;2902;42.130;24.732;2023-12-20T03:54:39;18.33;;;13.43;;
5754;SDS011;2902;42.130;24.732;2023-12-20T03:57:07;19.47;;;13.47;;
5754;SDS011;2902;42.130;24.732;2023-12-20T03:59:34;22.40;;;16.13;;
5754;SDS011;2902;42.130;24.732;2023-12-20T04:02:03;27.87;;;17.80;;
5754;SDS011;2902;42.130;24.732;2023-12-20T04:04:31;27.97;;;18.50;;
5754;SDS011;2902;42.130;24.732;2023-12-20T04:06:58;29.67;;;17.37;;
5754;SDS011;2902;42.130;24.732;2023-12-20T04:09:25;25.63;;;17.23;;
5754;SDS011;2902;42.130;24.732;2023-12-20T04:11:51;24.40;;;16.67;;
5754;SDS011;2902;42.130;24.732;2023-12-20T04:14:18;25.93;;;15.53;;
5754;SDS011;2902;42.130;24.732;2023-12-20T04:16:45;23.17;;;16.47;;
5754;SDS011;2902;42.130;24.732;2023-12-20T04:19:12;24.03;;;17.13;;
5754;SDS011;2902;42.130;24.732;2023-12-20T04:21:40;24.63;;;16.60;;
5754;SDS011;2902;42.130;24.732;2023-12-20T04:24:06;19.60;;;14.77;;
5754;SDS011;2902;42.130;24.732;2023-12-20T04:26:33;28.47;;;17.37;;
5754;SDS011;2902;42.130;24.732;2023-12-20T04:29:00;25.07;;;16.53;;
5754;SDS011;2902;42.130;24.732;2023-12-20T04:31:27;21.80;;;16.17;;
5754;SDS011;2902;42.130;24.732;2023-12-20T04:33:53;22.13;;;16.13;;
5754;SDS011;2902;42.130;24.732;2023-12-20T04:36:20;25.20;;;16.47;;
5754;SDS011;2902;42.130;24.732;2023-12-20T04:38:48;27.70;;;18.30;;
5754;SDS011;2902;42.130;24.732;2023-12-20T04:41:15;33.40;;;20.63;;
5754;SDS011;2902;42.130;24.732;2023-12-20T04:43:43;40.53;;;23.50;;
5754;SDS011;2902;42.130;24.732;2023-12-20T04:46:10;42.07;;;25.23;;
5754;SDS011;2902;42.130;24.732;2023-12-20T04:48:37;49.77;;;28.47;;
5754;SDS011;2902;42.130;24.732;2023-12-20T04:51:04;45.33;;;27.70;;
5754;SDS011;2902;42.130;24.732;2023-12-20T04:53:31;48.30;;;30.10;;
5754;SDS011;2902;42.130;24.732;2023-12-20T04:55:59;42.87;;;26.57;;
5754;SDS011;2902;42.130;24.732;2023-12-20T04:58:25;35.13;;;24.63;;
5754;SDS011;2902;42.130;24.732;2023-12-20T05:00:52;31.97;;;22.87;;
5754;SDS011;2902;42.130;24.732;2023-12-20T05:03:19;33.60;;;23.37;;
5754;SDS011;2902;42.130;24.732;2023-12-20T05:05:46;34.03;;;22.70;;
5754;SDS011;2902;42.130;24.732;2023-12-20T05:08:13;36.67;;;23.97;;
5754;SDS011;2902;42.130;24.732;2023-12-20T05:10:40;36.20;;;23.73;;
5754;SDS011;2902;42.130;24.732;2023-12-20T05:13:08;32.97;;;22.47;;
5754;SDS011;2902;42.130;24.732;2023-12-20T05:15:35;36.00;;;23.90;;
5754;SDS011;2902;42.130;24.732;2023-12-20T05:18:02;33.23;;;22.03;;
5754;SDS011;2902;42.130;24.732;2023-12-20T05:20:29;37.47;;;22.87;;
5754;SDS011;2902;42.130;24.732;2023-12-20T05:22:56;34.47;;;23.50;;
5754;SDS011;2902;42.130;24.732;2023-12-20T05:25:23;35.43;;;23.80;;
5754;SDS011;2902;42.130;24.732;2023-12-20T05:27:50;39.87;;;25.60;;
5754;SDS011;2902;42.130;24.732;2023-12-20T05:30:18;35.07;;;24.13;;
5754;SDS011;2902;42.130;24.732;2023-12-20T05:32:45;33.83;;;22.17;;
5754;SDS011;2902;42.130;24.732;2023-12-20T05:35:12;35.03;;;22.40;;
5754;SDS011;2902;42.130;24.732;2023-12-20T05:37:38;34.00;;;21.47;;
5754;SDS011;2902;42.130;24.732;2023-12-20T05:40:06;35.23;;;22.37;;
5754;SDS011;2902;42.130;24.732;2023-12-20T05:42:35;34.53;;;23.70;;
5754;SDS011;2902;42.130;24.732;2023-12-20T05:45:02;34.30;;;23.17;;
5754;SDS011;2902;42.130;24.732;2023-12-20T05:47:30;34.63;;;24.00;;
5754;SDS011;2902;42.130;24.732;2023-12-20T05:49:57;32.73;;;23.47;;
5754;SDS011;2902;42.130;24.732;2023-12-20T05:52:23;35.70;;;25.30;;
5754;SDS011;2902;42.130;24.732;2023-12-20T05:54:50;39.50;;;26.53;;
5754;SDS011;2902;42.130;24.732;2023-12-20T05:57:17;43.37;;;26.57;;
5754;SDS011;2902;42.130;24.732;2023-12-20T05:59:44;42.03;;;26.20;;
5754;SDS011;2902;42.130;24.732;2023-12-20T06:02:10;40.70;;;26.30;;
5754;SDS011;2902;42.130;24.732;2023-12-20T06:04:38;40.03;;;25.37;;
5754;SDS011;2902;42.130;24.732;2023-12-20T06:07:09;37.93;;;25.63;;
5754;SDS011;2902;42.130;24.732;2023-12-20T06:09:37;37.57;;;24.53;;
5754;SDS011;2902;42.130;24.732;2023-12-20T06:12:04;39.20;;;25.97;;
5754;SDS011;2902;42.130;24.732;2023-12-20T06:14:31;41.40;;;26.47;;
5754;SDS011;2902;42.130;24.732;2023-12-20T06:16:58;45.33;;;29.93;;
5754;SDS011;2902;42.130;24.732;2023-12-20T06:19:26;40.57;;;27.93;;
5754;SDS011;2902;42.130;24.732;2023-12-20T06:21:54;45.57;;;28.47;;
5754;SDS011;2902;42.130;24.732;2023-12-20T06:24:20;39.17;;;26.63;;
5754;SDS011;2902;42.130;24.732;2023-12-20T06:26:47;49.80;;;32.20;;
5754;SDS011;2902;42.130;24.732;2023-12-20T06:29:14;43.77;;;31.63;;
5754;SDS011;2902;42.130;24.732;2023-12-20T06:31:41;54.17;;;31.77;;
5754;SDS011;2902;42.130;24.732;2023-12-20T06:34:08;47.93;;;31.40;;
5754;SDS011;2902;42.130;24.732;2023-12-20T06:36:35;41.80;;;26.37;;
5754;SDS011;2902;42.130;24.732;2023-12-20T06:39:03;42.17;;;27.20;;
5754;SDS011;2902;42.130;24.732;2023-12-20T06:41:30;41.23;;;26.53;;
5754;SDS011;2902;42.130;24.732;2023-12-20T06:43:57;39.90;;;26.00;;
5754;SDS011;2902;42.130;24.732;2023-12-20T06:46:23;35.63;;;26.93;;
5754;SDS011;2902;42.130;24.732;2023-12-20T06:48:50;48.27;;;29.50;;
5754;SDS011;2902;42.130;24.732;2023-12-20T06:51:17;45.40;;;29.37;;
5754;SDS011;2902;42.130;24.732;2023-12-20T06:53:44;38.77;;;25.07;;
5754;SDS011;2902;42.130;24.732;2023-12-20T06:56:12;39.97;;;27.50;;
5754;SDS011;2902;42.130;24.732;2023-12-20T06:58:40;40.67;;;27.20;;
5754;SDS011;2902;42.130;24.732;2023-12-20T07:01:10;27.83;;;21.90;;
5754;SDS011;2902;42.130;24.732;2023-12-20T07:03:37;33.63;;;21.10;;
5754;SDS011;2902;42.130;24.732;2023-12-20T07:06:04;26.67;;;18.23;;
5754;SDS011;2902;42.130;24.732;2023-12-20T07:08:30;22.73;;;18.90;;
5754;SDS011;2902;42.130;24.732;2023-12-20T07:10:57;21.97;;;16.07;;
5754;SDS011;2902;42.130;24.732;2023-12-20T07:13:25;22.20;;;17.97;;
5754;SDS011;2902;42.130;24.732;2023-12-20T07:15:52;22.17;;;14.80;;
5754;SDS011;2902;42.130;24.732;2023-12-20T07:18:19;17.33;;;14.53;;
5754;SDS011;2902;42.130;24.732;2023-12-20T07:20:45;15.90;;;14.20;;
5754;SDS011;2902;42.130;24.732;2023-12-20T07:23:13;22.13;;;17.10;;
5754;SDS011;2902;42.130;24.732;2023-12-20T07:25:39;17.27;;;14.83;;
5754;SDS011;2902;42.130;24.732;2023-12-20T07:28:06;22.67;;;15.37;;
5754;SDS011;2902;42.130;24.732;2023-12-20T07:30:34;17.67;;;14.23;;
5754;SDS011;2902;42.130;24.732;2023-12-20T07:33:01;12.67;;;11.27;;
5754;SDS011;2902;42.130;24.732;2023-12-20T07:35:28;14.10;;;11.97;;
5754;SDS011;2902;42.130;24.732;2023-12-20T07:37:55;12.77;;;11.67;;
5754;SDS011;2902;42.130;24.732;2023-12-20T07:40:21;15.57;;;12.60;;
5754;SDS011;2902;42.130;24.732;2023-12-20T07:42:48;19.00;;;16.00;;
5754;SDS011;2902;42.130;24.732;2023-12-20T07:45:16;20.80;;;18.43;;
5754;SDS011;2902;42.130;24.732;2023-12-20T07:47:44;13.20;;;11.90;;
5754;SDS011;2902;42.130;24.732;2023-12-20T07:50:10;17.63;;;14.70;;
5754;SDS011;2902;42.130;24.732;2023-12-20T07:52:37;22.47;;;16.47;;
5754;SDS011;2902;42.130;24.732;2023-12-20T07:55:04;21.53;;;16.40;;
5754;SDS011;2902;42.130;24.732;2023-12-20T07:57:31;16.17;;;14.27;;
5754;SDS011;2902;42.130;24.732;2023-12-20T07:59:58;18.33;;;14.47;;
5754;SDS011;2902;42.130;24.732;2023-12-20T08:02:25;20.47;;;15.13;;
5754;SDS011;2902;42.130;24.732;2023-12-20T08:04:53;17.90;;;13.77;;
5754;SDS011;2902;42.130;24.732;2023-12-20T08:07:19;23.37;;;18.97;;
5754;SDS011;2902;42.130;24.732;2023-12-20T08:09:46;30.17;;;20.23;;
5754;SDS011;2902;42.130;24.732;2023-12-20T08:12:13;18.63;;;16.70;;
5754;SDS011;2902;42.130;24.732;2023-12-20T08:14:42;19.97;;;15.87;;
5754;SDS011;2902;42.130;24.732;2023-12-20T08:17:08;15.67;;;13.20;;
5754;SDS011;2902;42.130;24.732;2023-12-20T08:19:35;18.83;;;13.47;;
5754;SDS011;2902;42.130;24.732;2023-12-20T08:22:03;14.83;;;12.53;;
5754;SDS011;2902;42.130;24.732;2023-12-20T08:24:30;15.53;;;13.27;;
5754;SDS011;2902;42.130;24.732;2023-12-20T08:26:56;15.27;;;12.97;;
5754;SDS011;2902;42.130;24.732;2023-12-20T08:29:23;17.40;;;13.77;;
5754;SDS011;2902;42.130;24.732;2023-12-20T08:31:51;24.10;;;15.07;;
5754;SDS011;2902;42.130;24.732;2023-12-20T08:34:19;24.83;;;14.60;;
5754;SDS011;2902;42.130;24.732;2023-12-20T08:36:46;18.83;;;13.90;;
5754;SDS011;2902;42.130;24.732;2023-12-20T08:39:14;16.90;;;14.23;;
5754;SDS011;2902;42.130;24.732;2023-12-20T08:41:40;15.27;;;13.30;;
5754;SDS011;2902;42.130;24.732;2023-12-20T08:44:07;28.33;;;20.90;;
5754;SDS011;2902;42.130;24.732;2023-12-20T08:46:34;30.80;;;21.73;;
5754;SDS011;2902;42.130;24.732;2023-12-20T08:49:01;109.23;;;60.57;;
5754;SDS011;2902;42.130;24.732;2023-12-20T08:51:28;76.50;;;42.80;;
5754;SDS011;2902;42.130;24.732;2023-12-20T08:53:55;41.73;;;28.37;;
5754;SDS011;2902;42.130;24.732;2023-12-20T08:56:23;41.63;;;27.23;;
5754;SDS011;2902;42.130;24.732;2023-12-20T08:58:49;156.60;;;82.30;;
5754;SDS011;2902;42.130;24.732;2023-12-20T09:01:16;113.17;;;67.67;;
5754;SDS011;2902;42.130;24.732;2023-12-20T09:03:43;49.70;;;33.77;;
5754;SDS011;2902;42.130;24.732;2023-12-20T09:06:09;31.97;;;23.17;;
5754;SDS011;2902;42.130;24.732;2023-12-20T09:08:36;35.53;;;24.20;;
5754;SDS011;2902;42.130;24.732;2023-12-20T09:11:03;35.27;;;22.30;;
5754;SDS011;2902;42.130;24.732;2023-12-20T09:13:31;31.90;;;21.33;;
5754;SDS011;2902;42.130;24.732;2023-12-20T09:15:58;61.23;;;32.00;;
5754;SDS011;2902;42.130;24.732;2023-12-20T09:18:25;41.97;;;24.67;;
5754;SDS011;2902;42.130;24.732;2023-12-20T09:20:51;26.83;;;18.23;;
5754;SDS011;2902;42.130;24.732;2023-12-20T09:23:18;29.57;;;20.37;;
5754;SDS011;2902;42.130;24.732;2023-12-20T09:25:45;26.67;;;19.23;;
5754;SDS011;2902;42.130;24.732;2023-12-20T09:28:11;21.40;;;16.57;;
5754;SDS011;2902;42.130;24.732;2023-12-20T09:30:40;32.50;;;18.63;;
5754;SDS011;2902;42.130;24.732;2023-12-20T09:33:07;26.93;;;16.87;;
5754;SDS011;2902;42.130;24.732;2023-12-20T09:35:34;18.43;;;13.63;;
5754;SDS011;2902;42.130;24.732;2023-12-20T09:38:01;15.23;;;12.73;;
5754;SDS011;2902;42.130;24.732;2023-12-20T09:40:28;13.20;;;11.40;;
5754;SDS011;2902;42.130;24.732;2023-12-20T09:42:58;12.63;;;10.77;;
5754;SDS011;2902;42.130;24.732;2023-12-20T09:45:29;11.53;;;10.57;;
5754;SDS011;2902;42.130;24.732;2023-12-20T09:47:58;11.87;;;10.67;;
5754;SDS011;2902;42.130;24.732;2023-12-20T09:50:25;11.33;;;10.23;;
5754;SDS011;2902;42.130;24.732;2023-12-20T09:52:52;14.57;;;11.70;;
5754;SDS011;2902;42.130;24.732;2023-12-20T09:55:21;27.03;;;21.80;;
5754;SDS011;2902;42.130;24.732;2023-12-20T09:57:48;26.43;;;20.13;;
5754;SDS011;2902;42.130;24.732;2023-12-20T10:00:15;19.43;;;14.07;;
5754;SDS011;2902;42.130;24.732;2023-12-20T10:02:45;13.33;;;9.93;;
5754;SDS011;2902;42.130;24.732;2023-12-20T10:05:17;14.30;;;12.90;;
5754;SDS011;2902;42.130;24.732;2023-12-20T10:07:45;16.37;;;13.07;;
5754;SDS011;2902;42.130;24.732;2023-12-20T10:10:12;17.33;;;13.13;;
5754;SDS011;2902;42.130;24.732;2023-12-20T10:12:40;16.27;;;13.43;;
5754;SDS011;2902;42.130;24.732;2023-12-20T10:15:06;18.43;;;13.53;;
5754;SDS011;2902;42.130;24.732;2023-12-20T10:17:35;15.00;;;13.07;;
5754;SDS011;2902;42.130;24.732;2023-12-20T10:20:02;17.80;;;15.87;;
5754;SDS011;2902;42.130;24.732;2023-12-20T10:22:35;17.23;;;13.27;;
5754;SDS011;2902;42.130;24.732;2023-12-20T10:25:03;15.47;;;13.93;;
5754;SDS011;2902;42.130;24.732;2023-12-20T10:27:30;13.37;;;12.00;;
5754;SDS011;2902;42.130;24.732;2023-12-20T10:29:58;19.30;;;13.00;;
5754;SDS011;2902;42.130;24.732;2023-12-20T10:32:25;26.90;;;12.80;;
5754;SDS011;2902;42.130;24.732;2023-12-20T10:34:54;18.03;;;12.77;;
5754;SDS011;2902;42.130;24.732;2023-12-20T10:37:21;15.73;;;12.30;;
5754;SDS011;2902;42.130;24.732;2023-12-20T10:39:50;12.97;;;11.43;;
5754;SDS011;2902;42.130;24.732;2023-12-20T10:42:21;13.23;;;11.63;;
5754;SDS011;2902;42.130;24.732;2023-12-20T10:44:48;17.53;;;12.10;;
5754;SDS011;2902;42.130;24.732;2023-12-20T10:47:16;22.73;;;15.43;;
5754;SDS011;2902;42.130;24.732;2023-12-20T10:49:43;21.60;;;14.53;;
5754;SDS011;2902;42.130;24.732;2023-12-20T10:52:11;15.67;;;13.13;;
5754;SDS011;2902;42.130;24.732;2023-12-20T10:54:39;19.17;;;13.37;;
5754;SDS011;2902;42.130;24.732;2023-12-20T10:57:07;21.03;;;15.17;;
5754;SDS011;2902;42.130;24.732;2023-12-20T10:59:36;24.70;;;14.37;;
5754;SDS011;2902;42.130;24.732;2023-12-20T11:02:03;24.17;;;15.53;;
5754;SDS011;2902;42.130;24.732;2023-12-20T11:07:17;23.70;;;17.83;;
5754;SDS011;2902;42.130;24.732;2023-12-20T11:09:50;18.83;;;15.70;;
5754;SDS011;2902;42.130;24.732;2023-12-20T11:12:28;30.30;;;14.80;;
5754;SDS011;2902;42.130;24.732;2023-12-20T11:15:02;20.80;;;16.27;;
5754;SDS011;2902;42.130;24.732;2023-12-20T11:17:31;16.47;;;14.27;;
5754;SDS011;2902;42.130;24.732;2023-12-20T11:20:05;19.33;;;14.10;;
5754;SDS011;2902;42.130;24.732;2023-12-20T11:22:35;15.60;;;13.77;;
5754;SDS011;2902;42.130;24.732;2023-12-20T11:25:03;16.37;;;12.27;;
5754;SDS011;2902;42.130;24.732;2023-12-20T11:27:34;16.97;;;12.60;;
5754;SDS011;2902;42.130;24.732;2023-12-20T11:30:02;22.60;;;13.63;;
5754;SDS011;2902;42.130;24.732;2023-12-20T11:32:32;13.87;;;12.37;;
5754;SDS011;2902;42.130;24.732;2023-12-20T11:35:00;15.47;;;11.93;;
5754;SDS011;2902;42.130;24.732;2023-12-20T11:37:42;12.37;;;11.07;;
5754;SDS011;2902;42.130;24.732;2023-12-20T11:40:11;13.00;;;11.03;;
5754;SDS011;2902;42.130;24.732;2023-12-20T11:42:41;15.87;;;10.73;;
5754;SDS011;2902;42.130;24.732;2023-12-20T11:45:09;13.93;;;11.20;;
5754;SDS011;2902;42.130;24.732;2023-12-20T11:47:39;11.00;;;9.77;;
5754;SDS011;2902;42.130;24.732;2023-12-20T11:50:07;18.20;;;11.07;;
5754;SDS011;2902;42.130;24.732;2023-12-20T11:52:34;16.87;;;10.83;;
5754;SDS011;2902;42.130;24.732;2023-12-20T11:55:01;19.93;;;10.70;;
5754;SDS011;2902;42.130;24.732;2023-12-20T11:57:28;17.20;;;11.50;;
5754;SDS011;2902;42.130;24.732;2023-12-20T11:59:57;16.70;;;10.30;;
5754;SDS011;2902;42.130;24.732;2023-12-20T12:02:23;12.53;;;10.00;;
5754;SDS011;2902;42.130;24.732;2023-12-20T12:04:50;15.77;;;10.93;;
5754;SDS011;2902;42.130;24.732;2023-12-20T12:07:17;19.13;;;10.13;;
5754;SDS011;2902;42.130;24.732;2023-12-20T12:09:44;29.57;;;12.77;;
5754;SDS011;2902;42.130;24.732;2023-12-20T12:12:12;18.23;;;11.20;;
5754;SDS011;2902;42.130;24.732;2023-12-20T12:14:39;16.57;;;11.60;;
5754;SDS011;2902;42.130;24.732;2023-12-20T12:17:11;16.27;;;12.17;;
5754;SDS011;2902;42.130;24.732;2023-12-20T12:19:38;20.77;;;12.53;;
5754;SDS011;2902;42.130;24.732;2023-12-20T12:22:05;26.53;;;13.93;;
5754;SDS011;2902;42.130;24.732;2023-12-20T12:24:35;19.37;;;12.57;;
5754;SDS011;2902;42.130;24.732;2023-12-20T12:27:02;22.50;;;11.50;;
5754;SDS011;2902;42.130;24.732;2023-12-20T12:29:29;15.90;;;11.63;;
5754;SDS011;2902;42.130;24.732;2023-12-20T12:31:56;20.23;;;11.57;;
5754;SDS011;2902;42.130;24.732;2023-12-20T12:34:24;16.90;;;12.13;;
5754;SDS011;2902;42.130;24.732;2023-12-20T12:36:55;20.73;;;11.87;;
5754;SDS011;2902;42.130;24.732;2023-12-20T12:39:22;17.30;;;11.83;;
5754;SDS011;2902;42.130;24.732;2023-12-20T12:41:50;22.63;;;13.17;;
5754;SDS011;2902;42.130;24.732;2023-12-20T12:44:16;30.13;;;15.33;;
5754;SDS011;2902;42.130;24.732;2023-12-20T12:46:43;33.87;;;16.03;;
5754;SDS011;2902;42.130;24.732;2023-12-20T12:49:10;23.10;;;13.73;;
5754;SDS011;2902;42.130;24.732;2023-12-20T12:51:38;21.73;;;13.17;;
5754;SDS011;2902;42.130;24.732;2023-12-20T12:54:05;25.53;;;14.47;;
5754;SDS011;2902;42.130;24.732;2023-12-20T12:56:32;30.47;;;14.43;;
5754;SDS011;2902;42.130;24.732;2023-12-20T12:58:59;25.97;;;13.97;;
5754;SDS011;2902;42.130;24.732;2023-12-20T13:01:26;30.80;;;14.70;;
5754;SDS011;2902;42.130;24.732;2023-12-20T13:03:52;26.33;;;14.47;;
5754;SDS011;2902;42.130;24.732;2023-12-20T13:06:19;30.40;;;15.50;;
5754;SDS011;2902;42.130;24.732;2023-12-20T13:08:47;17.87;;;14.53;;
5754;SDS011;2902;42.130;24.732;2023-12-20T13:11:14;23.37;;;14.37;;
5754;SDS011;2902;42.130;24.732;2023-12-20T13:13:41;37.63;;;15.50;;
5754;SDS011;2902;42.130;24.732;2023-12-20T13:16:08;25.97;;;15.50;;
5754;SDS011;2902;42.130;24.732;2023-12-20T13:18:34;21.73;;;12.40;;
5754;SDS011;2902;42.130;24.732;2023-12-20T13:21:01;21.73;;;12.17;;
5754;SDS011;2902;42.130;24.732;2023-12-20T13:23:28;29.77;;;12.80;;
5754;SDS011;2902;42.130;24.732;2023-12-20T13:25:56;23.30;;;11.87;;
5754;SDS011;2902;42.130;24.732;2023-12-20T13:28:23;28.50;;;12.33;;
5754;SDS011;2902;42.130;24.732;2023-12-20T13:30:49;17.67;;;11.47;;
5754;SDS011;2902;42.130;24.732;2023-12-20T13:33:16;19.83;;;12.33;;
5754;SDS011;2902;42.130;24.732;2023-12-20T13:35:43;15.40;;;11.30;;
5754;SDS011;2902;42.130;24.732;2023-12-20T13:38:09;19.10;;;11.63;;
5754;SDS011;2902;42.130;24.732;2023-12-20T13:40:38;26.00;;;10.90;;
5754;SDS011;2902;42.130;24.732;2023-12-20T13:43:06;22.43;;;12.80;;
5754;SDS011;2902;42.130;24.732;2023-12-20T13:45:33;30.37;;;16.07;;
5754;SDS011;2902;42.130;24.732;2023-12-20T13:48:00;25.80;;;16.60;;
5754;SDS011;2902;42.130;24.732;2023-12-20T13:50:26;39.37;;;19.03;;
5754;SDS011;2902;42.130;24.732;2023-12-20T13:52:54;31.47;;;15.93;;
5754;SDS011;2902;42.130;24.732;2023-12-20T13:55:20;19.93;;;12.87;;
5754;SDS011;2902;42.130;24.732;2023-12-20T13:57:50;20.80;;;14.80;;
5754;SDS011;2902;42.130;24.732;2023-12-20T14:00:18;31.93;;;18.23;;
5754;SDS011;2902;42.130;24.732;2023-12-20T14:02:45;32.50;;;19.17;;
5754;SDS011;2902;42.130;24.732;2023-12-20T14:05:13;37.93;;;19.17;;
5754;SDS011;2902;42.130;24.732;2023-12-20T14:07:39;38.07;;;19.00;;
5754;SDS011;2902;42.130;24.732;2023-12-20T14:10:09;35.80;;;20.23;;
5754;SDS011;2902;42.130;24.732;2023-12-20T14:12:37;40.43;;;20.20;;
5754;SDS011;2902;42.130;24.732;2023-12-20T14:15:04;43.47;;;22.23;;
5754;SDS011;2902;42.130;24.732;2023-12-20T14:17:35;50.47;;;22.67;;
5754;SDS011;2902;42.130;24.732;2023-12-20T14:20:02;42.03;;;22.00;;
5754;SDS011;2902;42.130;24.732;2023-12-20T14:22:30;44.83;;;21.70;;
5754;SDS011;2902;42.130;24.732;2023-12-20T14:24:56;39.93;;;23.40;;
5754;SDS011;2902;42.130;24.732;2023-12-20T14:27:23;50.20;;;24.67;;
5754;SDS011;2902;42.130;24.732;2023-12-20T14:29:52;48.33;;;23.97;;
5754;SDS011;2902;42.130;24.732;2023-12-20T14:32:19;35.30;;;22.67;;
5754;SDS011;2902;42.130;24.732;2023-12-20T14:34:48;41.73;;;21.57;;
5754;SDS011;2902;42.130;24.732;2023-12-20T14:37:14;35.67;;;20.10;;